createdAt,value
2023-03-19T00:00:34.131Z,1004.94
2023-03-19T00:01:34.096Z,1004.95
2023-03-19T00:02:34.115Z,1004.97
2023-03-19T00:03:34.081Z,1005.00
2023-03-19T00:04:34.089Z,1005.02
2023-03-19T00:05:34.404Z,1005.03
2023-03-19T00:06:34.148Z,1005.05
2023-03-19T00:07:34.021Z,1005.04
2023-03-19T00:08:34.043Z,1005.04
2023-03-19T00:09:34.009Z,1005.06
2023-03-19T00:10:34.000Z,1005.08
2023-03-19T00:11:34.145Z,1005.10
2023-03-19T00:12:33.972Z,1005.12
2023-03-19T00:13:33.962Z,1005.14
2023-03-19T00:14:33.956Z,1005.15
2023-03-19T00:15:34.257Z,1005.15
2023-03-19T00:16:33.951Z,1005.15
2023-03-19T00:17:40.618Z,1005.16
2023-03-19T00:18:33.911Z,1005.18
2023-03-19T00:19:33.898Z,1005.19
2023-03-19T00:20:33.921Z,1005.19
2023-03-19T00:21:33.876Z,1005.20
2023-03-19T00:22:33.895Z,1005.20
2023-03-19T00:23:34.039Z,1005.21
2023-03-19T00:24:33.853Z,1005.22
2023-03-19T00:25:34.144Z,1005.22
2023-03-19T00:26:33.821Z,1005.22
2023-03-19T00:27:33.863Z,1005.22
2023-03-19T00:28:33.820Z,1005.23
2023-03-19T00:29:33.831Z,1005.24
2023-03-19T00:30:33.829Z,1005.24
2023-03-19T00:31:33.781Z,1005.25
2023-03-19T00:32:33.806Z,1005.25
2023-03-19T00:33:33.756Z,1005.25
2023-03-19T00:34:33.746Z,1005.25
2023-03-19T00:35:34.095Z,1005.26
2023-03-19T00:36:33.719Z,1005.25
2023-03-19T00:37:33.708Z,1005.25
2023-03-19T00:38:33.713Z,1005.25
2023-03-19T00:39:33.686Z,1005.26
2023-03-19T00:40:33.677Z,1005.27
2023-03-19T00:41:33.816Z,1005.28
2023-03-19T00:42:33.658Z,1005.29
2023-03-19T00:43:33.636Z,1005.32
2023-03-19T00:44:33.631Z,1005.34
2023-03-19T00:45:33.934Z,1005.36
2023-03-19T00:46:33.613Z,1005.37
2023-03-19T00:47:33.757Z,1005.37
2023-03-19T00:48:33.595Z,1005.37
2023-03-19T00:49:33.578Z,1005.36
2023-03-19T00:50:33.575Z,1005.36
2023-03-19T00:51:33.556Z,1005.37
2023-03-19T00:52:33.565Z,1005.38
2023-03-19T00:53:33.698Z,1005.39
2023-03-19T00:54:33.542Z,1005.39
2023-03-19T00:55:33.823Z,1005.39
2023-03-19T00:56:33.509Z,1005.39
2023-03-19T00:57:33.491Z,1005.40
2023-03-19T00:58:33.513Z,1005.39
2023-03-19T00:59:33.635Z,1005.38
2023-03-19T01:01:07.794Z,1005.38
2023-03-19T01:02:08.725Z,1005.38
2023-03-19T01:03:08.746Z,1005.37
2023-03-19T01:04:08.793Z,1005.37
2023-03-19T01:05:08.841Z,1005.37
2023-03-19T01:06:08.693Z,1005.36
2023-03-19T01:07:08.709Z,1005.35
2023-03-19T01:08:08.665Z,1005.33
2023-03-19T01:09:08.673Z,1005.32
2023-03-19T01:10:08.645Z,1005.31
2023-03-19T01:11:08.701Z,1005.30
2023-03-19T01:12:08.617Z,1005.29
2023-03-19T01:13:08.617Z,1005.29
2023-03-19T01:14:08.597Z,1005.29
2023-03-19T01:15:08.597Z,1005.30
2023-03-19T01:16:08.578Z,1005.31
2023-03-19T01:17:09.248Z,1005.33
2023-03-19T01:18:16.050Z,1005.34
2023-03-19T01:19:08.564Z,1005.34
2023-03-19T01:20:08.532Z,1005.35
2023-03-19T01:21:08.543Z,1005.35
2023-03-19T01:22:08.513Z,1005.35
2023-03-19T01:23:08.656Z,1005.34
2023-03-19T01:24:08.503Z,1005.33
2023-03-19T01:25:08.491Z,1005.32
2023-03-19T01:26:08.499Z,1005.33
2023-03-19T01:27:08.466Z,1005.33
2023-03-19T01:28:08.469Z,1005.33
2023-03-19T01:29:08.622Z,1005.33
2023-03-19T01:30:08.435Z,1005.33
2023-03-19T01:31:08.503Z,1005.32
2023-03-19T01:32:08.409Z,1005.31
2023-03-19T01:33:08.457Z,1005.30
2023-03-19T01:34:08.398Z,1005.29
2023-03-19T01:35:08.427Z,1005.28
2023-03-19T01:36:08.486Z,1005.27
2023-03-19T01:37:08.369Z,1005.27
2023-03-19T01:38:08.350Z,1005.26
2023-03-19T01:39:08.348Z,1005.27
2023-03-19T01:40:08.321Z,1005.28
2023-03-19T01:41:08.368Z,1005.29
2023-03-19T01:42:08.307Z,1005.30
2023-03-19T01:43:08.320Z,1005.31
2023-03-19T01:44:08.283Z,1005.31
2023-03-19T01:45:08.270Z,1005.32
2023-03-19T01:46:08.301Z,1005.34
2023-03-19T01:47:08.397Z,1005.35
2023-03-19T01:48:08.235Z,1005.37
2023-03-19T01:49:08.233Z,1005.37
2023-03-19T01:50:08.225Z,1005.36
2023-03-19T01:51:08.230Z,1005.34
2023-03-19T01:52:08.210Z,1005.33
2023-03-19T01:53:08.325Z,1005.31
2023-03-19T01:54:08.184Z,1005.29
2023-03-19T01:55:08.179Z,1005.27
2023-03-19T01:56:08.156Z,1005.25
2023-03-19T01:57:08.142Z,1005.23
2023-03-19T01:58:08.139Z,1005.20
2023-03-19T01:59:08.164Z,1005.19
2023-03-19T02:00:08.103Z,1005.18
2023-03-19T02:01:08.103Z,1005.17
2023-03-19T02:02:08.086Z,1005.17
2023-03-19T02:03:08.083Z,1005.16
2023-03-19T02:04:08.129Z,1005.17
2023-03-19T02:05:08.100Z,1005.17
2023-03-19T02:06:08.040Z,1005.17
2023-03-19T02:07:08.043Z,1005.17
2023-03-19T02:08:08.021Z,1005.18
2023-03-19T02:09:08.045Z,1005.19
2023-03-19T02:10:08.001Z,1005.19
2023-03-19T02:11:08.153Z,1005.18
2023-03-19T02:12:07.981Z,1005.17
2023-03-19T02:13:08.042Z,1005.15
2023-03-19T02:14:07.961Z,1005.14
2023-03-19T02:15:07.955Z,1005.12
2023-03-19T02:16:08.090Z,1005.10
2023-03-19T02:17:07.982Z,1005.09
2023-03-19T02:18:15.064Z,1005.09
2023-03-19T02:19:07.906Z,1005.09
2023-03-19T02:20:07.886Z,1005.11
2023-03-19T02:21:07.899Z,1005.12
2023-03-19T02:22:07.877Z,1005.12
2023-03-19T02:23:08.031Z,1005.14
2023-03-19T02:24:07.858Z,1005.16
2023-03-19T02:25:07.859Z,1005.17
2023-03-19T02:26:07.836Z,1005.19
2023-03-19T02:27:07.822Z,1005.20
2023-03-19T02:28:07.812Z,1005.20
2023-03-19T02:29:07.966Z,1005.20
2023-03-19T02:30:07.794Z,1005.21
2023-03-19T02:31:07.854Z,1005.21
2023-03-19T02:32:07.770Z,1005.21
2023-03-19T02:33:07.845Z,1005.21
2023-03-19T02:34:07.741Z,1005.21
2023-03-19T02:35:07.773Z,1005.22
2023-03-19T02:36:07.764Z,1005.23
2023-03-19T02:37:07.715Z,1005.25
2023-03-19T02:38:07.706Z,1005.26
2023-03-19T02:39:07.704Z,1005.28
2023-03-19T02:40:07.683Z,1005.29
2023-03-19T02:41:07.732Z,1005.29
2023-03-19T02:42:07.655Z,1005.31
2023-03-19T02:43:07.656Z,1005.32
2023-03-19T02:44:07.660Z,1005.32
2023-03-19T02:45:07.633Z,1005.33
2023-03-19T02:46:07.615Z,1005.33
2023-03-19T02:47:07.758Z,1005.32
2023-03-19T02:48:07.596Z,1005.31
2023-03-19T02:49:07.594Z,1005.31
2023-03-19T02:50:07.569Z,1005.29
2023-03-19T02:51:07.569Z,1005.29
2023-03-19T02:52:07.583Z,1005.29
2023-03-19T02:53:07.810Z,1005.29
2023-03-19T02:54:07.528Z,1005.29
2023-03-19T02:55:07.523Z,1005.30
2023-03-19T02:56:07.525Z,1005.31
2023-03-19T02:57:07.510Z,1005.31
2023-03-19T02:58:07.493Z,1005.31
2023-03-19T02:59:07.615Z,1005.31
2023-03-19T03:00:07.482Z,1005.31
2023-03-19T03:01:07.508Z,1005.32
2023-03-19T03:02:07.507Z,1005.33
2023-03-19T03:03:07.442Z,1005.34
2023-03-19T03:04:07.424Z,1005.34
2023-03-19T03:05:07.462Z,1005.35
2023-03-19T03:06:07.408Z,1005.37
2023-03-19T03:07:07.414Z,1005.37
2023-03-19T03:08:07.393Z,1005.37
2023-03-19T03:09:07.386Z,1005.36
2023-03-19T03:10:07.371Z,1005.35
2023-03-19T03:11:07.503Z,1005.34
2023-03-19T03:12:07.359Z,1005.34
2023-03-19T03:13:07.333Z,1005.33
2023-03-19T03:14:07.323Z,1005.33
2023-03-19T03:15:07.316Z,1005.33
2023-03-19T03:16:07.326Z,1005.33
2023-03-19T03:17:07.472Z,1005.33
2023-03-19T03:18:15.600Z,1005.34
2023-03-19T03:19:07.290Z,1005.35
2023-03-19T03:20:07.264Z,1005.35
2023-03-19T03:21:07.251Z,1005.36
2023-03-19T03:22:07.251Z,1005.36
2023-03-19T03:23:07.393Z,1005.35
2023-03-19T03:24:07.226Z,1005.35
2023-03-19T03:25:07.213Z,1005.35
2023-03-19T03:26:07.204Z,1005.35
2023-03-19T03:27:07.238Z,1005.35
2023-03-19T03:28:07.201Z,1005.36
2023-03-19T03:29:07.426Z,1005.38
2023-03-19T03:30:07.183Z,1005.40
2023-03-19T03:31:07.153Z,1005.40
2023-03-19T03:32:07.204Z,1005.40
2023-03-19T03:33:07.181Z,1005.40
2023-03-19T03:34:07.141Z,1005.39
2023-03-19T03:35:07.235Z,1005.38
2023-03-19T03:36:07.129Z,1005.38
2023-03-19T03:37:07.088Z,1005.37
2023-03-19T03:38:07.113Z,1005.37
2023-03-19T03:39:07.062Z,1005.36
2023-03-19T03:40:07.054Z,1005.35
2023-03-19T03:41:07.270Z,1005.33
2023-03-19T03:42:07.025Z,1005.33
2023-03-19T03:43:07.102Z,1005.33
2023-03-19T03:44:07.007Z,1005.33
2023-03-19T03:45:07.005Z,1005.32
2023-03-19T03:46:07.031Z,1005.31
2023-03-19T03:47:07.246Z,1005.30
2023-03-19T03:48:06.969Z,1005.30
2023-03-19T03:49:06.957Z,1005.30
2023-03-19T03:50:06.966Z,1005.31
2023-03-19T03:51:06.938Z,1005.32
2023-03-19T03:52:06.933Z,1005.34
2023-03-19T03:53:07.085Z,1005.35
2023-03-19T03:54:06.920Z,1005.37
2023-03-19T03:55:06.905Z,1005.37
2023-03-19T03:56:06.906Z,1005.38
2023-03-19T03:57:06.909Z,1005.39
2023-03-19T03:58:06.867Z,1005.41
2023-03-19T03:59:06.914Z,1005.41
2023-03-19T04:00:06.845Z,1005.41
2023-03-19T04:01:06.846Z,1005.40
2023-03-19T04:02:06.894Z,1005.38
2023-03-19T04:03:06.847Z,1005.37
2023-03-19T04:04:06.803Z,1005.36
2023-03-19T04:05:06.833Z,1005.36
2023-03-19T04:06:06.774Z,1005.36
2023-03-19T04:07:06.787Z,1005.37
2023-03-19T04:08:06.759Z,1005.39
2023-03-19T04:09:06.771Z,1005.41
2023-03-19T04:10:06.739Z,1005.43
2023-03-19T04:11:06.774Z,1005.44
2023-03-19T04:12:06.717Z,1005.46
2023-03-19T04:13:06.705Z,1005.47
2023-03-19T04:14:06.694Z,1005.49
2023-03-19T04:15:06.695Z,1005.50
2023-03-19T04:16:06.673Z,1005.51
2023-03-19T04:17:06.839Z,1005.51
2023-03-19T04:18:06.660Z,1005.50
2023-03-19T04:19:06.639Z,1005.50
2023-03-19T04:20:06.635Z,1005.50
2023-03-19T04:21:06.609Z,1005.50
2023-03-19T04:22:06.617Z,1005.50
2023-03-19T04:23:06.740Z,1005.51
2023-03-19T04:24:06.591Z,1005.51
2023-03-19T04:25:06.589Z,1005.51
2023-03-19T04:26:06.562Z,1005.50
2023-03-19T04:27:06.576Z,1005.49
2023-03-19T04:28:06.569Z,1005.48
2023-03-19T04:29:06.581Z,1005.48
2023-03-19T04:30:06.521Z,1005.47
2023-03-19T04:31:06.574Z,1005.47
2023-03-19T04:32:06.516Z,1005.46
2023-03-19T04:33:06.510Z,1005.47
2023-03-19T04:34:06.500Z,1005.47
2023-03-19T04:35:06.507Z,1005.47
2023-03-19T04:36:06.469Z,1005.49
2023-03-19T04:37:06.462Z,1005.50
2023-03-19T04:38:06.499Z,1005.51
2023-03-19T04:39:06.441Z,1005.52
2023-03-19T04:40:06.419Z,1005.54
2023-03-19T04:41:06.604Z,1005.53
2023-03-19T04:42:06.398Z,1005.54
2023-03-19T04:43:06.390Z,1005.55
2023-03-19T04:44:06.389Z,1005.56
2023-03-19T04:45:06.357Z,1005.56
2023-03-19T04:46:06.384Z,1005.57
2023-03-19T04:47:06.393Z,1005.59
2023-03-19T04:48:06.345Z,1005.60
2023-03-19T04:49:06.340Z,1005.61
2023-03-19T04:50:06.314Z,1005.62
2023-03-19T04:51:06.297Z,1005.64
2023-03-19T04:52:06.312Z,1005.67
2023-03-19T04:53:06.459Z,1005.69
2023-03-19T04:54:06.271Z,1005.71
2023-03-19T04:55:06.255Z,1005.74
2023-03-19T04:56:06.257Z,1005.73
2023-03-19T04:57:06.235Z,1005.72
2023-03-19T04:58:06.173Z,1005.72
2023-03-19T04:59:06.398Z,1005.73
2023-03-19T05:00:06.204Z,1005.73
2023-03-19T05:01:06.205Z,1005.72
2023-03-19T05:02:06.200Z,1005.73
2023-03-19T05:03:06.137Z,1005.72
2023-03-19T05:04:06.178Z,1005.71
2023-03-19T05:05:06.409Z,1005.70
2023-03-19T05:06:06.084Z,1005.69
2023-03-19T05:07:06.083Z,1005.68
2023-03-19T05:08:06.071Z,1005.68
2023-03-19T05:09:06.059Z,1005.68
2023-03-19T05:10:06.097Z,1005.68
2023-03-19T05:11:06.120Z,1005.69
2023-03-19T05:12:06.029Z,1005.69
2023-03-19T05:13:06.014Z,1005.70
2023-03-19T05:14:06.086Z,1005.69
2023-03-19T05:15:06.078Z,1005.69
2023-03-19T05:16:06.065Z,1005.69
2023-03-19T05:17:06.152Z,1005.71
2023-03-19T05:18:13.128Z,1005.73
2023-03-19T05:19:05.962Z,1005.76
2023-03-19T05:20:05.940Z,1005.78
2023-03-19T05:21:05.936Z,1005.79
2023-03-19T05:22:05.931Z,1005.81
2023-03-19T05:23:06.053Z,1005.82
2023-03-19T05:24:05.901Z,1005.83
2023-03-19T05:25:05.937Z,1005.84
2023-03-19T05:26:05.908Z,1005.86
2023-03-19T05:27:05.853Z,1005.86
2023-03-19T05:28:05.862Z,1005.87
2023-03-19T05:29:05.972Z,1005.87
2023-03-19T05:30:05.878Z,1005.86
2023-03-19T05:31:05.907Z,1005.85
2023-03-19T05:32:05.824Z,1005.85
2023-03-19T05:33:05.849Z,1005.83
2023-03-19T05:34:05.791Z,1005.82
2023-03-19T05:35:05.930Z,1005.82
2023-03-19T05:36:05.843Z,1005.81
2023-03-19T05:37:05.759Z,1005.81
2023-03-19T05:38:05.817Z,1005.81
2023-03-19T05:39:05.735Z,1005.82
2023-03-19T05:40:05.732Z,1005.84
2023-03-19T05:41:05.931Z,1005.84
2023-03-19T05:42:05.706Z,1005.84
2023-03-19T05:43:05.690Z,1005.85
2023-03-19T05:44:05.701Z,1005.84
2023-03-19T05:45:05.676Z,1005.84
2023-03-19T05:46:05.715Z,1005.83
2023-03-19T05:47:05.820Z,1005.83
2023-03-19T05:48:05.642Z,1005.83
2023-03-19T05:49:05.629Z,1005.84
2023-03-19T05:50:05.617Z,1005.86
2023-03-19T05:51:05.615Z,1005.87
2023-03-19T05:52:05.623Z,1005.88
2023-03-19T05:53:05.639Z,1005.90
2023-03-19T05:54:05.575Z,1005.91
2023-03-19T05:55:05.583Z,1005.91
2023-03-19T05:56:05.601Z,1005.92
2023-03-19T05:57:05.567Z,1005.92
2023-03-19T05:58:05.548Z,1005.92
2023-03-19T05:59:05.575Z,1005.92
2023-03-19T06:00:05.548Z,1005.91
2023-03-19T06:01:05.525Z,1005.91
2023-03-19T06:02:05.495Z,1005.91
2023-03-19T06:03:05.621Z,1005.91
2023-03-19T06:04:06.305Z,1005.91
2023-03-19T06:05:05.532Z,1005.91
2023-03-19T06:06:05.450Z,1005.92
2023-03-19T06:07:05.444Z,1005.92
2023-03-19T06:08:05.425Z,1005.92
2023-03-19T06:09:05.422Z,1005.92
2023-03-19T06:10:05.408Z,1005.91
2023-03-19T06:11:05.671Z,1005.91
2023-03-19T06:12:05.383Z,1005.90
2023-03-19T06:13:05.373Z,1005.91
2023-03-19T06:14:05.364Z,1005.91
2023-03-19T06:15:05.355Z,1005.90
2023-03-19T06:16:05.445Z,1005.89
2023-03-19T06:17:05.366Z,1005.88
2023-03-19T06:18:13.662Z,1005.85
2023-03-19T06:19:05.314Z,1005.84
2023-03-19T06:20:05.299Z,1005.86
2023-03-19T06:21:05.287Z,1005.89
2023-03-19T06:22:05.273Z,1005.92
2023-03-19T06:23:05.429Z,1005.95
2023-03-19T06:24:05.255Z,1005.98
2023-03-19T06:25:05.240Z,1005.99
2023-03-19T06:26:05.245Z,1006.00
2023-03-19T06:27:05.221Z,1006.03
2023-03-19T06:28:05.216Z,1006.05
2023-03-19T06:29:05.251Z,1006.07
2023-03-19T06:30:05.208Z,1006.08
2023-03-19T06:31:05.197Z,1006.08
2023-03-19T06:32:05.169Z,1006.09
2023-03-19T06:33:05.271Z,1006.11
2023-03-19T06:34:05.154Z,1006.11
2023-03-19T06:35:05.306Z,1006.12
2023-03-19T06:36:05.153Z,1006.10
2023-03-19T06:37:05.654Z,1006.07
2023-03-19T06:38:05.143Z,1006.05
2023-03-19T06:39:05.105Z,1006.04
2023-03-19T06:40:05.096Z,1006.03
2023-03-19T06:41:05.265Z,1006.05
2023-03-19T06:42:05.113Z,1006.08
2023-03-19T06:43:05.055Z,1006.11
2023-03-19T06:44:05.062Z,1006.15
2023-03-19T06:45:05.106Z,1006.19
2023-03-19T06:46:05.089Z,1006.22
2023-03-19T06:47:05.170Z,1006.24
2023-03-19T06:48:05.020Z,1006.23
2023-03-19T06:49:04.993Z,1006.22
2023-03-19T06:50:05.053Z,1006.19
2023-03-19T06:51:04.980Z,1006.17
2023-03-19T06:52:04.978Z,1006.16
2023-03-19T06:53:05.013Z,1006.15
2023-03-19T06:54:05.680Z,1006.15
2023-03-19T06:55:04.994Z,1006.15
2023-03-19T06:56:04.986Z,1006.15
2023-03-19T06:57:04.968Z,1006.15
2023-03-19T06:58:04.938Z,1006.15
2023-03-19T06:59:05.046Z,1006.15
2023-03-19T07:00:04.931Z,1006.15
2023-03-19T07:01:04.926Z,1006.15
2023-03-19T07:02:04.917Z,1006.15
2023-03-19T07:03:04.855Z,1006.14
2023-03-19T07:04:04.975Z,1006.14
2023-03-19T07:05:04.882Z,1006.15
2023-03-19T07:06:04.895Z,1006.15
2023-03-19T07:07:04.829Z,1006.15
2023-03-19T07:08:04.871Z,1006.14
2023-03-19T07:09:04.805Z,1006.11
2023-03-19T07:10:04.806Z,1006.08
2023-03-19T07:11:04.917Z,1006.07
2023-03-19T07:12:04.753Z,1006.07
2023-03-19T07:13:04.740Z,1006.07
2023-03-19T07:14:04.742Z,1006.08
2023-03-19T07:15:04.734Z,1006.10
2023-03-19T07:16:04.704Z,1006.13
2023-03-19T07:17:04.749Z,1006.13
2023-03-19T07:18:11.690Z,1006.11
2023-03-19T07:19:04.667Z,1006.11
2023-03-19T07:20:04.669Z,1006.10
2023-03-19T07:21:04.643Z,1006.12
2023-03-19T07:22:04.646Z,1006.13
2023-03-19T07:23:04.976Z,1006.14
2023-03-19T07:24:04.645Z,1006.14
2023-03-19T07:25:04.649Z,1006.15
2023-03-19T07:26:04.631Z,1006.17
2023-03-19T07:27:04.600Z,1006.18
2023-03-19T07:28:04.589Z,1006.20
2023-03-19T07:29:04.609Z,1006.20
2023-03-19T07:30:04.551Z,1006.22
2023-03-19T07:31:04.539Z,1006.25
2023-03-19T07:32:04.592Z,1006.27
2023-03-19T07:33:04.526Z,1006.30
2023-03-19T07:34:04.523Z,1006.33
2023-03-19T07:35:04.686Z,1006.35
2023-03-19T07:36:04.506Z,1006.37
2023-03-19T07:37:04.507Z,1006.39
2023-03-19T07:38:04.473Z,1006.41
2023-03-19T07:39:04.455Z,1006.43
2023-03-19T07:40:04.459Z,1006.45
2023-03-19T07:41:04.565Z,1006.43
2023-03-19T07:42:04.430Z,1006.40
2023-03-19T07:43:04.421Z,1006.39
2023-03-19T07:44:04.413Z,1006.41
2023-03-19T07:45:04.403Z,1006.43
2023-03-19T07:46:04.436Z,1006.45
2023-03-19T07:47:04.443Z,1006.47
2023-03-19T07:48:04.361Z,1006.48
2023-03-19T07:49:04.348Z,1006.49
2023-03-19T07:50:04.342Z,1006.48
2023-03-19T07:51:04.330Z,1006.48
2023-03-19T07:52:04.320Z,1006.47
2023-03-19T07:53:04.442Z,1006.46
2023-03-19T07:54:04.305Z,1006.45
2023-03-19T07:55:04.290Z,1006.43
2023-03-19T07:56:04.273Z,1006.43
2023-03-19T07:57:04.268Z,1006.41
2023-03-19T07:58:04.261Z,1006.42
2023-03-19T07:59:04.415Z,1006.42
2023-03-19T08:00:04.242Z,1006.40
2023-03-19T08:01:04.228Z,1006.40
2023-03-19T08:02:04.234Z,1006.40
2023-03-19T08:03:04.201Z,1006.40
2023-03-19T08:04:04.297Z,1006.40
2023-03-19T08:05:04.313Z,1006.39
2023-03-19T08:06:04.191Z,1006.38
2023-03-19T08:07:04.197Z,1006.36
2023-03-19T08:08:04.173Z,1006.35
2023-03-19T08:09:04.182Z,1006.33
2023-03-19T08:10:04.181Z,1006.33
2023-03-19T08:11:04.264Z,1006.33
2023-03-19T08:12:04.156Z,1006.35
2023-03-19T08:13:04.136Z,1006.37
2023-03-19T08:14:04.132Z,1006.38
2023-03-19T08:15:04.131Z,1006.38
2023-03-19T08:16:04.056Z,1006.38
2023-03-19T08:17:04.289Z,1006.39
2023-03-19T08:18:04.040Z,1006.39
2023-03-19T08:19:04.033Z,1006.39
2023-03-19T08:20:04.022Z,1006.40
2023-03-19T08:21:04.017Z,1006.41
2023-03-19T08:22:04.013Z,1006.43
2023-03-19T08:23:04.257Z,1006.46
2023-03-19T08:24:05.075Z,1006.48
2023-03-19T08:25:03.964Z,1006.49
2023-03-19T08:26:03.982Z,1006.49
2023-03-19T08:27:03.961Z,1006.48
2023-03-19T08:28:03.946Z,1006.46
2023-03-19T08:29:04.253Z,1006.45
2023-03-19T08:30:03.929Z,1006.45
2023-03-19T08:31:03.962Z,1006.45
2023-03-19T08:32:03.917Z,1006.45
2023-03-19T08:33:03.986Z,1006.46
2023-03-19T08:34:03.864Z,1006.46
2023-03-19T08:35:03.921Z,1006.46
2023-03-19T08:36:03.866Z,1006.45
2023-03-19T08:37:03.856Z,1006.45
2023-03-19T08:38:03.844Z,1006.45
2023-03-19T08:39:03.820Z,1006.45
2023-03-19T08:40:03.799Z,1006.45
2023-03-19T08:41:04.005Z,1006.44
2023-03-19T08:42:03.787Z,1006.43
2023-03-19T08:43:03.784Z,1006.42
2023-03-19T08:44:03.776Z,1006.41
2023-03-19T08:45:03.765Z,1006.41
2023-03-19T08:46:03.758Z,1006.41
2023-03-19T08:47:03.882Z,1006.40
2023-03-19T08:48:03.721Z,1006.39
2023-03-19T08:49:03.717Z,1006.39
2023-03-19T08:50:03.700Z,1006.39
2023-03-19T08:51:03.700Z,1006.39
2023-03-19T08:52:03.674Z,1006.39
2023-03-19T08:53:03.825Z,1006.39
2023-03-19T08:54:03.648Z,1006.39
2023-03-19T08:55:03.677Z,1006.39
2023-03-19T08:56:03.734Z,1006.39
2023-03-19T08:57:03.655Z,1006.39
2023-03-19T08:58:03.620Z,1006.40
2023-03-19T08:59:03.896Z,1006.40
2023-03-19T09:00:03.588Z,1006.40
2023-03-19T09:01:03.587Z,1006.40
2023-03-19T09:02:03.672Z,1006.40
2023-03-19T09:03:03.579Z,1006.41
2023-03-19T09:04:03.553Z,1006.43
2023-03-19T09:05:03.738Z,1006.45
2023-03-19T09:06:03.535Z,1006.47
2023-03-19T09:07:03.523Z,1006.49
2023-03-19T09:08:03.506Z,1006.50
2023-03-19T09:09:03.502Z,1006.51
2023-03-19T09:10:03.489Z,1006.52
2023-03-19T09:11:03.546Z,1006.51
2023-03-19T09:12:03.482Z,1006.50
2023-03-19T09:13:03.469Z,1006.50
2023-03-19T09:14:03.449Z,1006.50
2023-03-19T09:15:03.435Z,1006.51
2023-03-19T09:16:03.479Z,1006.52
2023-03-19T09:17:03.491Z,1006.52
2023-03-19T09:18:10.722Z,1006.52
2023-03-19T09:19:03.389Z,1006.52
2023-03-19T09:20:03.389Z,1006.52
2023-03-19T09:21:03.389Z,1006.53
2023-03-19T09:22:03.372Z,1006.53
2023-03-19T09:23:03.400Z,1006.54
2023-03-19T09:24:03.344Z,1006.54
2023-03-19T09:25:03.327Z,1006.54
2023-03-19T09:26:03.334Z,1006.53
2023-03-19T09:27:03.321Z,1006.53
2023-03-19T09:28:03.296Z,1006.53
2023-03-19T09:29:03.450Z,1006.52
2023-03-19T09:30:03.289Z,1006.52
2023-03-19T09:31:03.330Z,1006.51
2023-03-19T09:32:03.252Z,1006.49
2023-03-19T09:33:03.347Z,1006.48
2023-03-19T09:34:03.252Z,1006.48
2023-03-19T09:35:03.507Z,1006.48
2023-03-19T09:36:03.266Z,1006.50
2023-03-19T09:37:03.225Z,1006.52
2023-03-19T09:38:03.183Z,1006.53
2023-03-19T09:39:03.189Z,1006.54
2023-03-19T09:40:03.171Z,1006.55
2023-03-19T09:41:03.303Z,1006.56
2023-03-19T09:42:03.161Z,1006.57
2023-03-19T09:43:03.155Z,1006.58
2023-03-19T09:44:03.155Z,1006.59
2023-03-19T09:45:03.130Z,1006.59
2023-03-19T09:46:03.124Z,1006.58
2023-03-19T09:47:03.282Z,1006.58
2023-03-19T09:48:03.102Z,1006.57
2023-03-19T09:49:03.088Z,1006.57
2023-03-19T09:50:03.172Z,1006.56
2023-03-19T09:51:03.253Z,1006.56
2023-03-19T09:52:03.037Z,1006.55
2023-03-19T09:53:03.223Z,1006.54
2023-03-19T09:54:03.022Z,1006.55
2023-03-19T09:55:03.068Z,1006.55
2023-03-19T09:56:03.033Z,1006.56
2023-03-19T09:57:02.998Z,1006.55
2023-03-19T09:58:02.973Z,1006.56
2023-03-19T09:59:03.064Z,1006.56
2023-03-19T10:00:02.950Z,1006.57
2023-03-19T10:01:02.947Z,1006.58
2023-03-19T10:02:02.981Z,1006.58
2023-03-19T10:03:03.974Z,1006.57
2023-03-19T10:04:02.941Z,1006.56
2023-03-19T10:05:03.096Z,1006.55
2023-03-19T10:06:02.897Z,1006.54
2023-03-19T10:07:02.894Z,1006.54
2023-03-19T10:08:02.874Z,1006.54
2023-03-19T10:09:02.881Z,1006.53
2023-03-19T10:10:02.858Z,1006.54
2023-03-19T10:11:03.028Z,1006.54
2023-03-19T10:12:02.828Z,1006.54
2023-03-19T10:13:02.831Z,1006.54
2023-03-19T10:14:02.802Z,1006.53
2023-03-19T10:15:02.806Z,1006.55
2023-03-19T10:16:02.826Z,1006.56
2023-03-19T10:17:02.843Z,1006.57
2023-03-19T10:18:02.772Z,1006.56
2023-03-19T10:19:02.777Z,1006.54
2023-03-19T10:20:02.771Z,1006.52
2023-03-19T10:21:02.740Z,1006.51
2023-03-19T10:22:02.758Z,1006.53
2023-03-19T10:23:02.773Z,1006.56
2023-03-19T10:24:02.706Z,1006.58
2023-03-19T10:25:02.691Z,1006.58
2023-03-19T10:26:02.702Z,1006.57
2023-03-19T10:27:02.672Z,1006.56
2023-03-19T10:28:02.652Z,1006.57
2023-03-19T10:29:02.765Z,1006.58
2023-03-19T10:30:02.665Z,1006.58
2023-03-19T10:31:02.856Z,1006.58
2023-03-19T10:32:02.669Z,1006.57
2023-03-19T10:33:02.701Z,1006.56
2023-03-19T10:34:02.606Z,1006.55
2023-03-19T10:35:02.769Z,1006.55
2023-03-19T10:36:02.708Z,1006.55
2023-03-19T10:37:02.582Z,1006.54
2023-03-19T10:38:02.567Z,1006.54
2023-03-19T10:39:03.012Z,1006.54
2023-03-19T10:40:02.537Z,1006.52
2023-03-19T10:41:02.877Z,1006.52
2023-03-19T10:42:02.591Z,1006.52
2023-03-19T10:43:02.514Z,1006.52
2023-03-19T10:44:02.496Z,1006.53
2023-03-19T10:45:02.485Z,1006.54
2023-03-19T10:46:02.500Z,1006.56
2023-03-19T10:47:02.554Z,1006.56
2023-03-19T10:48:02.453Z,1006.57
2023-03-19T10:49:09.247Z,1006.56
2023-03-19T10:50:13.774Z,1006.55
2023-03-19T10:51:02.415Z,1006.53
2023-03-19T10:52:02.414Z,1006.53
2023-03-19T10:53:02.559Z,1006.53
2023-03-19T10:54:02.389Z,1006.55
2023-03-19T10:55:02.383Z,1006.57
2023-03-19T10:56:02.381Z,1006.58
2023-03-19T10:57:02.382Z,1006.59
2023-03-19T10:58:02.348Z,1006.62
2023-03-19T10:59:02.537Z,1006.64
2023-03-19T11:00:02.396Z,1006.64
2023-03-19T11:01:02.436Z,1006.64
2023-03-19T11:02:02.298Z,1006.64
2023-03-19T11:03:02.318Z,1006.65
2023-03-19T11:04:02.434Z,1006.64
2023-03-19T11:05:02.429Z,1006.64
2023-03-19T11:06:02.353Z,1006.63
2023-03-19T11:07:02.247Z,1006.61
2023-03-19T11:08:02.250Z,1006.61
2023-03-19T11:09:02.473Z,1006.60
2023-03-19T11:10:02.205Z,1006.58
2023-03-19T11:11:02.402Z,1006.56
2023-03-19T11:12:02.203Z,1006.54
2023-03-19T11:13:02.226Z,1006.55
2023-03-19T11:14:02.175Z,1006.55
2023-03-19T11:15:02.180Z,1006.56
2023-03-19T11:16:02.141Z,1006.56
2023-03-19T11:17:04.551Z,1006.55
2023-03-19T11:18:02.132Z,1006.54
2023-03-19T11:19:02.162Z,1006.54
2023-03-19T11:20:02.117Z,1006.54
2023-03-19T11:21:02.138Z,1006.53
2023-03-19T11:22:02.086Z,1006.52
2023-03-19T11:23:02.146Z,1006.53
2023-03-19T11:24:02.063Z,1006.53
2023-03-19T11:25:02.047Z,1006.54
2023-03-19T11:26:02.044Z,1006.56
2023-03-19T11:27:02.066Z,1006.57
2023-03-19T11:28:02.046Z,1006.58
2023-03-19T11:29:02.062Z,1006.58
2023-03-19T11:30:02.014Z,1006.56
2023-03-19T11:31:01.998Z,1006.61
2023-03-19T11:32:11.805Z,1006.53
2023-03-19T11:33:02.041Z,1006.52
2023-03-19T11:34:01.954Z,1006.52
2023-03-19T11:35:02.108Z,1006.52
2023-03-19T11:36:01.986Z,1006.49
2023-03-19T11:37:01.930Z,1006.48
2023-03-19T11:38:01.919Z,1006.48
2023-03-19T11:39:01.902Z,1006.47
2023-03-19T11:40:01.914Z,1006.48
2023-03-19T11:41:01.925Z,1006.49
2023-03-19T11:42:01.910Z,1006.49
2023-03-19T11:43:01.863Z,1006.49
2023-03-19T11:44:01.858Z,1006.50
2023-03-19T11:45:01.852Z,1006.52
2023-03-19T11:46:01.874Z,1006.52
2023-03-19T11:47:01.980Z,1006.53
2023-03-19T11:48:01.806Z,1006.54
2023-03-19T11:49:01.816Z,1006.55
2023-03-19T11:50:01.788Z,1006.55
2023-03-19T11:51:01.781Z,1006.59
2023-03-19T11:52:01.790Z,1006.59
2023-03-19T11:53:01.909Z,1006.61
2023-03-19T11:54:01.743Z,1006.64
2023-03-19T11:55:01.760Z,1006.65
2023-03-19T11:56:01.736Z,1006.68
2023-03-19T11:57:01.721Z,1006.67
2023-03-19T11:58:01.750Z,1006.64
2023-03-19T11:59:02.280Z,1006.63
2023-03-19T12:00:01.708Z,1006.62
2023-03-19T12:01:01.688Z,1006.60
2023-03-19T12:02:01.757Z,1006.58
2023-03-19T12:03:01.649Z,1006.57
2023-03-19T12:04:02.268Z,1006.57
2023-03-19T12:05:01.820Z,1006.57
2023-03-19T12:06:01.626Z,1006.57